81TA weather

Masterson Heliport
Mico, Texas, United States

Public forecast

Using degrees Fahrenheit for public forecast. Weather courtesy of forecast.io.

METAR (pilot weather report)

Closest report is Castroville Municipal Airport, 13.5 nm (25.1 km) SSE. Retrieved 2019/07/19 07:35 UTC (0 seconds ago):

KCVB 190735Z AUTO 13004KT 10SM CLR 25/20 A3000 RMK AO2 T02500203

TAF (pilot weather forecast)

Closest forecast is Lackland Air Force Base, 20.9 nm (38.8 km) ESE. Retrieved 2019/07/19 02:15 UTC (5 hours ago):

TAF TAF KSKF 190200Z 1902/2008 14014KT 9999 FEW060 QNH2989INS TEMPO 1902/1905 13015G25KT BECMG 1908/1909 16009KT 9999 BKN010 QNH2996INS TEMPO 1909/1915 SCT010 BECMG 1914/1915 15012G18KT 9999 SCT030 QNH2985INS TEMPO 1923/2004 13015G25KT BECMG 2004/2005 14012KT 9999 FEW050 QNH2994INS TX36/1921Z TN25/1911Z